createdAt,value
2022-10-22T00:02:53.981Z,12.24
2022-10-22T00:05:56.433Z,12.13
2022-10-22T00:08:58.810Z,12.00
2022-10-22T00:12:01.119Z,12.13
2022-10-22T00:15:05.071Z,12.07
2022-10-22T00:18:07.402Z,12.00
2022-10-22T00:21:09.740Z,12.07
2022-10-22T00:24:12.888Z,12.00
2022-10-22T00:27:15.178Z,12.07
2022-10-22T00:30:17.398Z,12.10
2022-10-22T00:33:19.549Z,12.07
2022-10-22T00:36:22.576Z,12.25
2022-10-22T00:39:26.391Z,12.30
2022-10-22T00:42:31.612Z,12.51
2022-10-22T00:45:33.824Z,12.62
2022-10-22T00:48:36.013Z,12.73
2022-10-22T00:51:38.227Z,12.75
2022-10-22T00:54:42.195Z,12.76
2022-10-22T00:57:52.248Z,12.97
2022-10-22T01:00:55.478Z,12.88
2022-10-22T01:03:57.869Z,12.96
2022-10-22T01:07:00.183Z,12.86
2022-10-22T01:10:50.522Z,12.92
2022-10-22T01:14:12.205Z,13.03
2022-10-22T01:17:36.124Z,13.17
2022-10-22T01:20:50.335Z,13.27
2022-10-22T01:24:03.855Z,13.46
2022-10-22T01:27:18.244Z,13.48
2022-10-22T01:30:20.980Z,13.44
2022-10-22T01:33:25.278Z,13.36
2022-10-22T01:36:31.358Z,13.34
2022-10-22T01:39:36.836Z,13.48
2022-10-22T01:42:39.015Z,13.58
2022-10-22T01:45:48.663Z,13.65
2022-10-22T01:49:02.593Z,13.70
2022-10-22T01:52:16.180Z,13.85
2022-10-22T01:55:29.472Z,13.92
2022-10-22T01:58:50.761Z,13.82
2022-10-22T02:02:04.530Z,14.02
2022-10-22T02:05:09.788Z,13.98
2022-10-22T02:08:15.912Z,14.09
2022-10-22T02:11:18.754Z,14.30
2022-10-22T02:14:21.687Z,14.49
2022-10-22T02:17:27.079Z,14.80
2022-10-22T02:20:33.087Z,14.93
2022-10-22T02:23:35.814Z,15.11
2022-10-22T02:26:50.117Z,15.08
2022-10-22T02:30:04.956Z,14.97
2022-10-22T02:33:10.574Z,15.06
2022-10-22T02:36:14.506Z,15.03
2022-10-22T02:39:18.551Z,14.90
2022-10-22T02:42:20.767Z,14.73
2022-10-22T02:45:23.105Z,14.53
2022-10-22T02:48:25.461Z,14.46
2022-10-22T02:51:27.683Z,14.40
2022-10-22T02:54:29.900Z,14.11
2022-10-22T02:57:32.454Z,13.94
2022-10-22T03:00:34.660Z,14.06
2022-10-22T03:03:36.889Z,14.05
2022-10-22T03:06:39.121Z,14.18
2022-10-22T03:09:41.356Z,14.28
2022-10-22T03:12:43.576Z,14.45
2022-10-22T03:15:48.767Z,14.49
2022-10-22T03:18:50.921Z,14.49
2022-10-22T03:21:58.648Z,14.63
2022-10-22T03:25:07.843Z,14.67
2022-10-22T03:28:11.429Z,14.52
2022-10-22T03:31:13.591Z,14.42
2022-10-22T03:34:15.805Z,14.26
2022-10-22T03:37:18.230Z,14.21
2022-10-22T03:40:20.874Z,14.16
2022-10-22T03:43:23.081Z,14.14
2022-10-22T03:46:25.283Z,14.08
2022-10-22T03:49:27.433Z,14.06
2022-10-22T03:52:34.923Z,13.98
2022-10-22T03:55:38.338Z,13.88
2022-10-22T03:58:41.876Z,14.01
2022-10-22T04:01:44.053Z,13.92
2022-10-22T04:04:46.223Z,13.81
2022-10-22T04:07:48.390Z,13.70
2022-10-22T04:10:53.383Z,13.60
2022-10-22T04:13:55.552Z,13.58
2022-10-22T04:16:57.887Z,13.48
2022-10-22T04:20:00.091Z,13.39
2022-10-22T04:23:02.257Z,12.96
2022-10-22T04:26:06.785Z,12.83
2022-10-22T04:29:11.972Z,12.81
2022-10-22T04:32:17.399Z,13.02
2022-10-22T04:35:19.678Z,12.76
2022-10-22T04:38:21.857Z,12.88
2022-10-22T04:41:26.975Z,12.82
2022-10-22T04:44:29.156Z,12.95
2022-10-22T04:47:31.319Z,12.99
2022-10-22T04:50:33.501Z,12.92
2022-10-22T04:53:36.122Z,12.86
2022-10-22T04:56:38.468Z,12.86
2022-10-22T04:59:40.833Z,12.83
2022-10-22T05:02:44.753Z,12.76
2022-10-22T05:05:46.924Z,13.04
2022-10-22T05:08:53.880Z,13.13
2022-10-22T05:11:56.121Z,13.30
2022-10-22T05:14:58.289Z,13.44
2022-10-22T05:18:00.455Z,13.64
2022-10-22T05:21:03.576Z,14.06
2022-10-22T05:24:06.207Z,14.43
2022-10-22T05:27:08.430Z,14.62
2022-10-22T05:30:11.350Z,14.75
2022-10-22T05:33:13.518Z,14.88
2022-10-22T05:36:18.937Z,15.00
2022-10-22T05:39:21.087Z,15.27
2022-10-22T05:42:23.404Z,15.44
2022-10-22T05:45:25.581Z,15.32
2022-10-22T05:48:27.800Z,15.45
2022-10-22T05:51:32.688Z,15.52
2022-10-22T05:54:34.990Z,15.72
2022-10-22T05:57:37.159Z,16.07
2022-10-22T06:00:39.449Z,16.33
2022-10-22T06:03:42.104Z,16.46
2022-10-22T06:06:54.996Z,16.43
2022-10-22T06:09:57.268Z,16.44
2022-10-22T06:13:01.503Z,16.27
2022-10-22T06:16:03.729Z,16.14
2022-10-22T06:19:06.294Z,16.02
2022-10-22T06:22:08.479Z,16.05
2022-10-22T06:25:10.927Z,16.02
2022-10-22T06:28:13.122Z,15.93
2022-10-22T06:31:15.299Z,15.96
2022-10-22T06:34:20.561Z,15.90
2022-10-22T06:37:22.777Z,15.92
2022-10-22T06:40:25.007Z,15.85
2022-10-22T06:43:28.679Z,15.89
2022-10-22T06:46:31.854Z,15.81
2022-10-22T06:49:34.014Z,15.82
2022-10-22T06:52:42.514Z,15.89
2022-10-22T06:55:44.683Z,15.85
2022-10-22T06:58:48.546Z,15.83
2022-10-22T07:01:50.834Z,15.78
2022-10-22T07:04:53.086Z,15.90
2022-10-22T07:07:55.268Z,15.96
2022-10-22T07:11:04.959Z,15.95
2022-10-22T07:14:07.548Z,16.02
2022-10-22T07:17:09.983Z,16.05
2022-10-22T07:20:14.999Z,16.24
2022-10-22T07:23:17.577Z,16.34
2022-10-22T07:26:20.436Z,16.63
2022-10-22T07:29:22.648Z,16.98
2022-10-22T07:32:24.887Z,17.23
2022-10-22T07:35:27.092Z,17.20
2022-10-22T07:38:29.806Z,18.00
2022-10-22T07:41:32.074Z,18.28
2022-10-22T07:44:34.259Z,17.59
2022-10-22T07:47:36.577Z,17.43
2022-10-22T07:50:38.791Z,17.32
2022-10-22T07:53:41.066Z,17.30
2022-10-22T07:56:43.228Z,17.60
2022-10-22T07:59:45.407Z,17.91
2022-10-22T08:02:47.609Z,17.91
2022-10-22T08:05:51.326Z,18.22
2022-10-22T08:08:53.602Z,18.35
2022-10-22T08:11:55.800Z,18.59
2022-10-22T08:14:58.061Z,18.88
2022-10-22T08:18:00.211Z,19.13
2022-10-22T08:21:02.448Z,19.24
2022-10-22T08:24:05.011Z,19.20
2022-10-22T08:27:07.273Z,18.98
2022-10-22T08:30:10.202Z,18.98
2022-10-22T08:33:12.366Z,19.30
2022-10-22T08:36:14.527Z,19.50
2022-10-22T08:39:16.731Z,19.89
2022-10-22T08:42:49.394Z,19.88
2022-10-22T08:46:01.819Z,19.85
2022-10-22T08:52:19.443Z,20.37
2022-10-22T08:55:24.623Z,21.15
2022-10-22T08:58:40.387Z,20.90
2022-10-22T09:01:46.992Z,20.62
2022-10-22T09:05:02.134Z,20.64
2022-10-22T09:08:05.658Z,20.62
2022-10-22T09:11:10.976Z,20.36
2022-10-22T09:14:16.772Z,20.36
2022-10-22T09:17:21.951Z,20.39
2022-10-22T09:20:28.781Z,20.42
2022-10-22T09:24:16.748Z,20.47
2022-10-22T09:27:21.559Z,20.73
2022-10-22T09:30:26.761Z,20.97
2022-10-22T09:33:31.792Z,21.41
2022-10-22T09:36:34.965Z,21.67
2022-10-22T09:39:44.434Z,21.75
2022-10-22T09:42:47.448Z,21.76
2022-10-22T09:46:00.427Z,21.95
2022-10-22T09:49:06.911Z,22.20
2022-10-22T09:52:27.492Z,22.46
2022-10-22T09:55:29.738Z,22.33
2022-10-22T09:58:42.376Z,22.21
2022-10-22T10:01:45.313Z,22.27
2022-10-22T10:04:48.904Z,22.13
2022-10-22T10:07:51.072Z,22.58
2022-10-22T10:11:05.913Z,23.06
2022-10-22T10:14:28.450Z,23.41
2022-10-22T10:18:02.742Z,23.11
2022-10-22T10:21:32.748Z,22.97
2022-10-22T10:25:05.692Z,23.08
2022-10-22T10:28:45.037Z,23.04
2022-10-22T10:32:22.326Z,23.53
2022-10-22T10:35:28.226Z,23.84
2022-10-22T10:38:37.027Z,24.78
2022-10-22T10:41:52.114Z,25.24
2022-10-22T10:45:17.053Z,24.62
2022-10-22T10:48:37.370Z,25.54
2022-10-22T10:52:18.963Z,26.11
2022-10-22T10:55:35.991Z,25.47
2022-10-22T10:58:59.014Z,24.64
2022-10-22T11:02:10.385Z,24.17
2022-10-22T11:05:26.396Z,25.12
2022-10-22T11:08:38.171Z,24.98
2022-10-22T11:11:48.900Z,24.85
2022-10-22T11:15:34.123Z,24.67
2022-10-22T11:18:41.849Z,23.92
2022-10-22T11:22:08.427Z,23.53
2022-10-22T11:25:14.590Z,23.28
2022-10-22T11:28:27.044Z,23.04
2022-10-22T11:31:31.680Z,22.97
2022-10-22T11:34:44.444Z,22.99
2022-10-22T11:37:48.268Z,22.94
2022-10-22T11:41:01.313Z,22.79
2022-10-22T11:44:19.545Z,22.74
2022-10-22T11:47:26.206Z,22.51
2022-10-22T11:50:48.951Z,22.56
2022-10-22T11:53:57.078Z,22.39
2022-10-22T11:57:25.754Z,22.32
2022-10-22T12:00:48.597Z,22.18
2022-10-22T12:03:58.407Z,22.23
2022-10-22T12:07:02.173Z,22.23
2022-10-22T12:10:18.865Z,22.20
2022-10-22T12:13:27.742Z,22.14
2022-10-22T12:16:55.224Z,22.13
2022-10-22T12:20:07.280Z,21.97
2022-10-22T12:23:12.618Z,21.88
2022-10-22T12:29:36.227Z,21.71
2022-10-22T12:32:41.402Z,21.78
2022-10-22T12:35:46.600Z,21.72
2022-10-22T12:38:48.921Z,21.63
2022-10-22T12:41:52.670Z,21.59
2022-10-22T12:44:56.671Z,21.54
2022-10-22T12:48:07.948Z,21.42
2022-10-22T12:51:16.171Z,21.42
2022-10-22T12:54:24.377Z,21.55
2022-10-22T12:57:26.740Z,21.59
2022-10-22T13:00:34.539Z,21.52
2022-10-22T13:03:42.464Z,21.62
2022-10-22T13:07:09.542Z,21.51
2022-10-22T13:10:31.987Z,21.51
2022-10-22T13:13:40.275Z,21.37
2022-10-22T13:16:42.475Z,21.31
2022-10-22T13:20:05.409Z,21.24
2022-10-22T13:23:20.126Z,21.12
2022-10-22T13:26:22.574Z,21.00
2022-10-22T13:29:25.205Z,20.97
2022-10-22T13:32:33.158Z,20.91
2022-10-22T13:35:38.208Z,20.80
2022-10-22T13:38:41.207Z,20.81
2022-10-22T13:41:43.442Z,20.87
2022-10-22T13:44:45.704Z,20.80
2022-10-22T13:47:53.206Z,20.84
2022-10-22T13:50:55.651Z,20.79
2022-10-22T13:53:58.172Z,20.72
2022-10-22T13:57:00.928Z,20.63
2022-10-22T14:00:04.032Z,20.59
2022-10-22T14:03:17.379Z,20.60
2022-10-22T14:06:21.912Z,20.50
2022-10-22T14:09:24.110Z,20.45
2022-10-22T14:12:28.353Z,20.32
2022-10-22T14:15:30.560Z,20.25
2022-10-22T14:18:33.693Z,20.23
2022-10-22T14:21:37.954Z,20.25
2022-10-22T14:24:40.150Z,20.29
2022-10-22T14:27:42.792Z,20.35
2022-10-22T14:30:46.039Z,20.21
2022-10-22T14:33:49.019Z,20.23
2022-10-22T14:36:51.163Z,20.22
2022-10-22T14:39:59.703Z,20.22
2022-10-22T14:43:01.883Z,20.15
2022-10-22T14:46:04.058Z,20.18
2022-10-22T14:49:06.371Z,20.11
2022-10-22T14:52:10.632Z,20.11
2022-10-22T14:55:19.507Z,19.96
2022-10-22T14:58:21.689Z,19.74
2022-10-22T15:01:23.917Z,19.50
2022-10-22T15:04:27.234Z,19.09
2022-10-22T15:07:29.475Z,18.99
2022-10-22T15:10:31.628Z,18.66
2022-10-22T15:13:34.804Z,18.42
2022-10-22T15:16:36.985Z,18.38
2022-10-22T15:19:39.165Z,18.11
2022-10-22T15:22:41.600Z,17.96
2022-10-22T15:25:44.116Z,17.89
2022-10-22T15:28:46.323Z,17.74
2022-10-22T15:31:54.546Z,17.60
2022-10-22T15:34:56.710Z,17.49
2022-10-22T15:37:58.888Z,17.38
2022-10-22T15:41:10.169Z,17.25
2022-10-22T15:44:24.147Z,17.22
2022-10-22T15:47:29.522Z,17.08
2022-10-22T15:50:32.229Z,17.01
2022-10-22T15:53:34.407Z,16.99
2022-10-22T15:56:36.580Z,16.91
2022-10-22T15:59:38.991Z,16.89
2022-10-22T16:02:41.217Z,16.91
2022-10-22T16:05:51.502Z,16.94
2022-10-22T16:08:54.805Z,16.85
2022-10-22T16:11:57.465Z,16.84
2022-10-22T16:14:59.645Z,16.84
2022-10-22T16:18:01.793Z,16.75
2022-10-22T16:21:04.047Z,16.75
2022-10-22T16:24:07.677Z,16.74
2022-10-22T16:27:10.559Z,16.72
2022-10-22T16:30:13.403Z,16.67
2022-10-22T16:33:15.665Z,16.68
2022-10-22T16:36:19.820Z,16.71
2022-10-22T16:39:22.116Z,16.71
2022-10-22T16:42:24.251Z,16.72
2022-10-22T16:45:26.480Z,16.64
2022-10-22T16:48:28.886Z,16.54
2022-10-22T16:51:31.126Z,16.48
2022-10-22T16:54:33.303Z,16.50
2022-10-22T16:57:36.017Z,16.48
2022-10-22T17:00:38.219Z,16.44
2022-10-22T17:03:40.495Z,16.21
2022-10-22T17:06:42.749Z,16.05
2022-10-22T17:09:44.920Z,16.06
2022-10-22T17:12:48.159Z,15.99
2022-10-22T17:15:50.323Z,15.97
2022-10-22T17:18:56.236Z,15.82
2022-10-22T17:21:58.478Z,15.65
2022-10-22T17:25:17.396Z,15.75
2022-10-22T17:28:19.548Z,15.62
2022-10-22T17:31:24.765Z,15.70
2022-10-22T17:34:29.921Z,15.55
2022-10-22T17:37:32.914Z,15.52
2022-10-22T17:40:41.439Z,15.42
2022-10-22T17:43:50.770Z,15.28
2022-10-22T17:46:53.324Z,15.38
2022-10-22T17:49:55.549Z,15.38
2022-10-22T17:52:57.732Z,15.25
2022-10-22T17:56:07.018Z,15.32
2022-10-22T17:59:13.186Z,15.31
2022-10-22T18:02:17.632Z,15.25
2022-10-22T18:05:21.108Z,15.25
2022-10-22T18:08:26.134Z,15.25
2022-10-22T18:11:28.442Z,15.14
2022-10-22T18:14:30.587Z,15.14
2022-10-22T18:17:34.668Z,15.12
2022-10-22T18:20:39.355Z,15.08
2022-10-22T18:23:42.085Z,15.07
2022-10-22T18:26:44.728Z,15.12
2022-10-22T18:29:49.960Z,15.16
2022-10-22T18:32:52.178Z,15.04
2022-10-22T18:35:54.364Z,15.03
2022-10-22T18:39:01.486Z,15.07
2022-10-22T18:42:06.302Z,15.00
2022-10-22T18:45:08.886Z,15.06
2022-10-22T18:48:13.597Z,14.97
2022-10-22T18:51:15.791Z,15.07
2022-10-22T18:54:23.808Z,14.98
2022-10-22T18:57:26.807Z,15.00
2022-10-22T19:00:29.460Z,15.07
2022-10-22T19:03:31.616Z,15.03
2022-10-22T19:06:35.878Z,14.87
2022-10-22T19:09:40.552Z,14.80
2022-10-22T19:12:42.724Z,14.73
2022-10-22T19:15:44.888Z,14.72
2022-10-22T19:18:47.034Z,14.83
2022-10-22T19:21:49.753Z,14.87
2022-10-22T19:24:52.090Z,14.79
2022-10-22T19:27:54.946Z,14.84
2022-10-22T19:30:57.801Z,14.77
2022-10-22T19:34:01.859Z,14.70
2022-10-22T19:37:04.026Z,14.69
2022-10-22T19:40:07.921Z,14.67
2022-10-22T19:43:10.104Z,14.62
2022-10-22T19:46:12.504Z,14.66
2022-10-22T19:49:18.856Z,14.62
2022-10-22T19:52:24.268Z,14.56
2022-10-22T19:55:26.840Z,14.52
2022-10-22T19:58:29.027Z,14.46
2022-10-22T20:01:34.682Z,14.47
2022-10-22T20:04:36.903Z,14.56
2022-10-22T20:07:39.172Z,14.53
2022-10-22T20:10:41.543Z,14.53
2022-10-22T20:13:45.518Z,14.56
2022-10-22T20:16:51.730Z,14.49
2022-10-22T20:19:53.896Z,14.53
2022-10-22T20:22:56.093Z,14.52
2022-10-22T20:25:58.351Z,14.46
2022-10-22T20:29:00.560Z,14.47
2022-10-22T20:32:04.338Z,14.47
2022-10-22T20:35:08.854Z,14.40
2022-10-22T20:38:14.146Z,14.46
2022-10-22T20:41:19.460Z,14.33
2022-10-22T20:44:21.652Z,14.35
2022-10-22T20:47:30.444Z,14.33
2022-10-22T20:50:41.556Z,14.36
2022-10-22T20:53:43.798Z,14.30
2022-10-22T20:56:47.874Z,14.26
2022-10-22T20:59:50.575Z,14.21
2022-10-22T21:02:52.992Z,14.22
2022-10-22T21:05:55.151Z,14.16
2022-10-22T21:08:57.474Z,14.14
2022-10-22T21:12:03.243Z,14.01
2022-10-22T21:15:10.188Z,14.05
2022-10-22T21:18:14.766Z,13.98
2022-10-22T21:21:20.100Z,13.92
2022-10-22T21:24:24.766Z,13.82
2022-10-22T21:27:26.951Z,13.82
2022-10-22T21:30:29.675Z,13.74
2022-10-22T21:33:35.028Z,13.73
2022-10-22T21:36:37.334Z,13.77
2022-10-22T21:39:41.999Z,13.67
2022-10-22T21:42:44.666Z,13.68
2022-10-22T21:45:46.905Z,13.63
2022-10-22T21:49:01.938Z,13.48
2022-10-22T21:52:06.876Z,13.39
2022-10-22T21:55:09.414Z,13.42
2022-10-22T21:58:11.607Z,13.34
2022-10-22T22:01:15.173Z,13.40
2022-10-22T22:04:17.350Z,13.28
2022-10-22T22:07:19.510Z,13.40
2022-10-22T22:10:21.756Z,13.42
2022-10-22T22:13:24.962Z,13.17
2022-10-22T22:16:30.325Z,13.03
2022-10-22T22:19:33.227Z,12.97
2022-10-22T22:22:35.490Z,12.82
2022-10-22T22:25:37.729Z,12.82
2022-10-22T22:28:40.376Z,12.86
2022-10-22T22:31:43.551Z,12.92
2022-10-22T22:34:45.731Z,12.71
2022-10-22T22:37:47.878Z,12.58
2022-10-22T22:40:50.038Z,12.61
2022-10-22T22:43:52.296Z,12.68
2022-10-22T22:46:54.532Z,12.58
2022-10-22T22:49:56.706Z,12.59
2022-10-22T22:52:58.882Z,12.81
2022-10-22T22:56:09.000Z,12.96
2022-10-22T22:59:11.893Z,12.91
2022-10-22T23:02:14.119Z,12.95
2022-10-22T23:05:16.292Z,12.92
2022-10-22T23:08:18.456Z,12.89
2022-10-22T23:11:21.374Z,12.86
2022-10-22T23:14:23.547Z,12.86
2022-10-22T23:17:25.775Z,12.89
2022-10-22T23:20:27.959Z,12.85
2022-10-22T23:23:30.912Z,12.88
2022-10-22T23:26:39.504Z,12.86
2022-10-22T23:29:41.703Z,12.88
2022-10-22T23:32:43.864Z,12.89
2022-10-22T23:35:46.138Z,12.79
2022-10-22T23:38:50.214Z,12.86
2022-10-22T23:41:53.183Z,12.83
2022-10-22T23:44:55.351Z,12.79
2022-10-22T23:47:57.518Z,12.82
2022-10-22T23:51:11.383Z,12.82
2022-10-22T23:54:15.875Z,12.82
2022-10-22T23:57:18.044Z,12.85
